Ana Sayfa
METAR-TAF:

METAR-TAF

Havaalanları :

Kahramanmaraş Havalimanı

Kahramanmaraş, Türkiye

Enlem: 37-32-20N, Boylam: 036-57-12E, yükseklik: 525 m

Güncel hava durumu gözlemi

Rapor saat 14:50 UTC de 48 dakika önce yapıldı.
Rüzgar güneydan 8 kt, güneydoğu ve güney/güneybatı arasında değişken
Sıcaklık 29°C
Nem 20%
Basınç 1009 hPa
Görüş mesafesi 10 km veya daha fazla
1500 m altında bulut yok ve kümülonimbus yok

METAR: LTCN 261450Z 18008KT 140V200 CAVOK 29/04 Q1009 NOSIG

Saat: 18:38 (15:38 UTC)


TAF: eksik

4.000'den fazla havaalanı için hava durumu gözlemleri ve tahminleri (METAR ve TAF raporları).

Kullanılabilir istasyonlar harita üzerinde sarı ve kırmızı noktalarla gösterilir.

İstasyonun adını görmek için fareyi noktanın üzerinde gezdirin.

Sonrasında hava gözlem ve tahminlerini görmek için tıklayın.

Haritayı değiştirmek için: yaklaştırmak için siyah artı işaretli yeşil düğmeye ve uzaklaştırmak için de eksi işaretli düğmeye hızla tıklayın; bitişik haritalar için yeşil okları kullanın.


METAR-TAF: